createdAt,value
2022-08-19T00:01:38.189Z,20.2
2022-08-19T00:03:37.760Z,20.2
2022-08-19T00:05:37.759Z,20.2
2022-08-19T00:07:37.768Z,20.2
2022-08-19T00:09:37.769Z,20.2
2022-08-19T00:11:37.775Z,20.2
2022-08-19T00:13:37.781Z,20.2
2022-08-19T00:15:37.784Z,20.2
2022-08-19T00:17:37.789Z,20.1
2022-08-19T00:19:37.809Z,20.1
2022-08-19T00:21:37.791Z,20.1
2022-08-19T00:23:37.803Z,20.1
2022-08-19T00:25:37.812Z,20.1
2022-08-19T00:27:37.817Z,20
2022-08-19T00:29:37.819Z,20
2022-08-19T00:31:37.837Z,20
2022-08-19T00:33:37.829Z,20
2022-08-19T00:35:37.833Z,20
2022-08-19T00:37:37.838Z,20
2022-08-19T00:39:38.082Z,20
2022-08-19T00:41:37.865Z,20
2022-08-19T00:43:37.865Z,20
2022-08-19T00:45:37.863Z,20
2022-08-19T00:47:37.874Z,20
2022-08-19T00:49:37.883Z,20
2022-08-19T00:51:37.877Z,20
2022-08-19T00:53:37.893Z,20
2022-08-19T00:55:37.889Z,20
2022-08-19T00:57:37.903Z,20
2022-08-19T00:59:53.726Z,19.9
2022-08-19T01:01:38.022Z,19.9
2022-08-19T01:03:56.718Z,19.9
2022-08-19T01:05:37.922Z,19.9
2022-08-19T01:07:38.173Z,19.8
2022-08-19T01:09:37.931Z,19.8
2022-08-19T01:11:37.934Z,19.8
2022-08-19T01:13:44.425Z,19.8
2022-08-19T01:15:37.951Z,19.7
2022-08-19T01:17:37.949Z,19.7
2022-08-19T01:19:43.912Z,19.7
2022-08-19T01:21:37.964Z,19.7
2022-08-19T01:23:37.966Z,19.7
2022-08-19T01:25:37.972Z,19.7
2022-08-19T01:27:43.044Z,19.7
2022-08-19T01:29:37.980Z,19.7
2022-08-19T01:31:37.991Z,19.7
2022-08-19T01:33:37.994Z,19.6
2022-08-19T01:35:38.001Z,19.6
2022-08-19T01:37:38.005Z,19.6
2022-08-19T01:39:38.059Z,19.6
2022-08-19T01:41:38.014Z,19.5
2022-08-19T01:43:38.024Z,19.5
2022-08-19T01:45:38.036Z,19.5
2022-08-19T01:47:38.031Z,19.5
2022-08-19T01:49:38.039Z,19.5
2022-08-19T01:51:38.575Z,19.5
2022-08-19T01:53:38.048Z,19.4
2022-08-19T01:55:40.723Z,19.4
2022-08-19T01:57:38.061Z,19.4
2022-08-19T01:59:38.060Z,19.4
2022-08-19T02:01:38.116Z,19.4
2022-08-19T02:03:38.087Z,19.4
2022-08-19T02:05:38.076Z,19.3
2022-08-19T02:07:38.078Z,19.3
2022-08-19T02:09:38.092Z,19.3
2022-08-19T02:11:38.083Z,19.3
2022-08-19T02:13:38.090Z,19.3
2022-08-19T02:15:38.093Z,19.3
2022-08-19T02:17:38.096Z,19.3
2022-08-19T02:19:39.030Z,19.3
2022-08-19T02:21:38.102Z,19.3
2022-08-19T02:23:38.111Z,19.2
2022-08-19T02:25:38.110Z,19.2
2022-08-19T02:27:38.111Z,19.2
2022-08-19T02:29:38.120Z,19.2
2022-08-19T02:31:38.133Z,19.2
2022-08-19T02:33:38.127Z,19.2
2022-08-19T02:35:38.135Z,19.2
2022-08-19T02:37:38.126Z,19.1
2022-08-19T02:39:38.181Z,19.1
2022-08-19T02:41:38.137Z,19.1
2022-08-19T02:43:38.137Z,19.1
2022-08-19T02:45:40.413Z,19.1
2022-08-19T02:47:38.138Z,19.1
2022-08-19T02:49:38.134Z,19
2022-08-19T02:51:38.138Z,19
2022-08-19T02:53:38.138Z,19
2022-08-19T02:55:46.013Z,19
2022-08-19T02:57:38.145Z,18.9
2022-08-19T02:59:38.144Z,18.9
2022-08-19T03:01:38.163Z,18.9
2022-08-19T03:03:38.149Z,18.9
2022-08-19T03:05:46.890Z,18.9
2022-08-19T03:07:38.150Z,18.9
2022-08-19T03:09:38.149Z,18.8
2022-08-19T03:11:38.159Z,18.8
2022-08-19T03:13:38.164Z,18.8
2022-08-19T03:15:38.169Z,18.8
2022-08-19T03:17:38.179Z,18.8
2022-08-19T03:19:38.184Z,18.7
2022-08-19T03:21:38.207Z,18.7
2022-08-19T03:23:38.213Z,18.7
2022-08-19T03:25:38.211Z,18.7
2022-08-19T03:27:38.233Z,18.7
2022-08-19T03:29:43.063Z,18.6
2022-08-19T03:31:42.396Z,18.6
2022-08-19T03:33:38.243Z,18.6
2022-08-19T03:35:38.253Z,18.6
2022-08-19T03:37:38.259Z,18.6
2022-08-19T03:39:38.296Z,18.6
2022-08-19T03:41:44.740Z,18.5
2022-08-19T03:43:38.278Z,18.5
2022-08-19T03:45:38.282Z,18.5
2022-08-19T03:47:38.288Z,18.5
2022-08-19T03:49:38.298Z,18.4
2022-08-19T03:51:38.303Z,18.4
2022-08-19T03:53:38.311Z,18.4
2022-08-19T03:55:38.313Z,18.4
2022-08-19T03:57:38.326Z,18.4
2022-08-19T03:59:38.330Z,18.4
2022-08-19T04:01:38.387Z,18.3
2022-08-19T04:03:38.349Z,18.3
2022-08-19T04:05:38.350Z,18.3
2022-08-19T04:07:38.364Z,18.3
2022-08-19T04:09:38.371Z,18.3
2022-08-19T04:11:42.794Z,18.3
2022-08-19T04:13:38.386Z,18.2
2022-08-19T04:15:38.397Z,18.2
2022-08-19T04:17:38.404Z,18.2
2022-08-19T04:19:38.406Z,18.2
2022-08-19T04:21:38.415Z,18.2
2022-08-19T04:23:38.423Z,18.2
2022-08-19T04:25:38.432Z,18.2
2022-08-19T04:27:38.440Z,18.1
2022-08-19T04:29:38.444Z,18.2
2022-08-19T04:31:38.459Z,18.1
2022-08-19T04:33:38.460Z,18.1
2022-08-19T04:35:38.483Z,18.1
2022-08-19T04:37:38.465Z,18.1
2022-08-19T04:39:38.489Z,18.1
2022-08-19T04:41:38.484Z,18.1
2022-08-19T04:43:38.490Z,18.1
2022-08-19T04:45:39.710Z,18.1
2022-08-19T04:47:47.280Z,18.1
2022-08-19T04:49:38.524Z,18.1
2022-08-19T04:51:38.528Z,18.1
2022-08-19T04:53:38.534Z,18.1
2022-08-19T04:55:38.540Z,18.1
2022-08-19T04:57:38.558Z,18.1
2022-08-19T04:59:38.564Z,18
2022-08-19T05:01:38.572Z,18.1
2022-08-19T05:03:38.582Z,18.1
2022-08-19T05:05:44.943Z,18.1
2022-08-19T05:07:38.594Z,18.1
2022-08-19T05:09:52.653Z,18.1
2022-08-19T05:11:38.613Z,18.1
2022-08-19T05:13:38.615Z,18.1
2022-08-19T05:15:38.619Z,18.1
2022-08-19T05:17:39.349Z,18.1
2022-08-19T05:19:38.637Z,18
2022-08-19T05:21:38.643Z,18.1
2022-08-19T05:23:38.651Z,18.1
2022-08-19T05:25:38.665Z,18.1
2022-08-19T05:27:38.670Z,18.1
2022-08-19T05:29:38.672Z,18.1
2022-08-19T05:31:38.672Z,18
2022-08-19T05:33:38.679Z,18
2022-08-19T05:35:38.741Z,18
2022-08-19T05:37:38.699Z,18
2022-08-19T05:39:38.775Z,18.1
2022-08-19T05:41:38.719Z,18.1
2022-08-19T05:43:38.731Z,18.1
2022-08-19T05:45:38.740Z,18.1
2022-08-19T05:47:40.640Z,18.1
2022-08-19T05:49:38.760Z,18.1
2022-08-19T05:51:38.774Z,18.2
2022-08-19T05:53:38.783Z,18.2
2022-08-19T05:55:38.791Z,18.3
2022-08-19T05:57:38.798Z,18.4
2022-08-19T05:59:39.171Z,18.4
2022-08-19T06:01:38.819Z,18.5
2022-08-19T06:03:38.829Z,18.5
2022-08-19T06:05:42.360Z,18.6
2022-08-19T06:07:38.856Z,18.7
2022-08-19T06:09:38.855Z,18.8
2022-08-19T06:11:38.856Z,18.8
2022-08-19T06:13:38.863Z,18.9
2022-08-19T06:15:38.879Z,18.9
2022-08-19T06:17:38.887Z,18.9
2022-08-19T06:19:40.488Z,19
2022-08-19T06:21:38.892Z,19
2022-08-19T06:23:38.910Z,19
2022-08-19T06:25:38.906Z,19
2022-08-19T06:27:45.013Z,19
2022-08-19T06:29:38.928Z,19
2022-08-19T06:31:38.935Z,19
2022-08-19T06:33:38.949Z,19
2022-08-19T06:35:38.988Z,18.9
2022-08-19T06:37:42.073Z,19
2022-08-19T06:39:39.002Z,19
2022-08-19T06:41:41.801Z,18.9
2022-08-19T06:43:41.234Z,18.9
2022-08-19T06:45:39.500Z,18.9
2022-08-19T06:47:39.018Z,18.9
2022-08-19T06:49:39.029Z,18.9
2022-08-19T06:51:42.744Z,18.9
2022-08-19T06:53:39.072Z,18.9
2022-08-19T06:55:39.091Z,18.9
2022-08-19T06:57:39.077Z,19
2022-08-19T06:59:39.088Z,18.9
2022-08-19T07:01:39.105Z,18.9
2022-08-19T07:03:39.676Z,18.8
2022-08-19T07:05:39.135Z,18.8
2022-08-19T07:07:39.114Z,18.8
2022-08-19T07:09:39.271Z,18.8
2022-08-19T07:11:39.139Z,18.8
2022-08-19T07:13:39.148Z,18.8
2022-08-19T07:15:39.747Z,18.8
2022-08-19T07:17:39.177Z,18.8
2022-08-19T07:19:39.167Z,18.8
2022-08-19T07:21:39.179Z,18.8
2022-08-19T07:23:39.185Z,18.8
2022-08-19T07:25:39.200Z,18.8
2022-08-19T07:27:39.509Z,18.8
2022-08-19T07:29:39.223Z,18.8
2022-08-19T07:31:39.235Z,18.8
2022-08-19T07:33:39.249Z,18.8
2022-08-19T07:35:39.254Z,18.7
2022-08-19T07:37:39.269Z,18.7
2022-08-19T07:39:39.279Z,18.8
2022-08-19T07:41:39.291Z,18.8
2022-08-19T07:43:39.304Z,18.7
2022-08-19T07:45:39.313Z,18.8
2022-08-19T07:47:48.525Z,18.7
2022-08-19T07:49:39.341Z,18.7
2022-08-19T07:51:39.346Z,18.7
2022-08-19T07:53:39.971Z,18.7
2022-08-19T07:55:40.808Z,18.7
2022-08-19T07:57:39.387Z,18.7
2022-08-19T07:59:39.392Z,18.7
2022-08-19T08:01:41.693Z,18.7
2022-08-19T08:03:39.400Z,18.7
2022-08-19T08:05:42.974Z,18.7
2022-08-19T08:07:39.415Z,18.7
2022-08-19T08:09:39.560Z,18.7
2022-08-19T08:11:39.436Z,18.7
2022-08-19T08:13:39.441Z,18.6
2022-08-19T08:15:42.386Z,18.6
2022-08-19T08:17:48.997Z,18.6
2022-08-19T08:19:39.482Z,18.6
2022-08-19T08:23:39.707Z,18.6
2022-08-19T08:25:39.525Z,18.7
2022-08-19T08:27:39.535Z,18.7
2022-08-19T08:29:39.545Z,18.7
2022-08-19T08:31:39.558Z,18.7
2022-08-19T08:33:39.564Z,18.7
2022-08-19T08:35:39.582Z,18.8
2022-08-19T08:37:39.601Z,18.8
2022-08-19T08:39:39.633Z,18.8
2022-08-19T08:41:39.621Z,18.8
2022-08-19T08:43:39.630Z,18.8
2022-08-19T08:45:40.878Z,18.9
2022-08-19T08:47:42.000Z,18.9
2022-08-19T08:49:39.672Z,19
2022-08-19T08:53:41.523Z,19
2022-08-19T08:55:39.696Z,19
2022-08-19T08:57:40.696Z,19.1
2022-08-19T08:59:39.699Z,19
2022-08-19T09:01:39.756Z,19
2022-08-19T09:03:39.728Z,19.1
2022-08-19T09:05:41.544Z,19.1
2022-08-19T09:07:39.919Z,19.1
2022-08-19T09:09:39.768Z,19.1
2022-08-19T09:11:39.786Z,19.2
2022-08-19T09:13:39.795Z,19.2
2022-08-19T09:15:39.810Z,19.2
2022-08-19T09:17:39.821Z,19.2
2022-08-19T09:19:39.835Z,19.2
2022-08-19T09:21:39.847Z,19.2
2022-08-19T09:23:39.867Z,19.2
2022-08-19T09:25:39.871Z,19.3
2022-08-19T09:27:42.694Z,19.3
2022-08-19T09:29:39.905Z,19.4
2022-08-19T09:31:39.917Z,19.5
2022-08-19T09:33:39.934Z,19.5
2022-08-19T09:35:49.592Z,19.5
2022-08-19T09:37:40.421Z,19.6
2022-08-19T09:39:40.006Z,19.7
2022-08-19T09:41:39.984Z,19.8
2022-08-19T09:43:44.212Z,19.7
2022-08-19T09:45:40.012Z,19.7
2022-08-19T09:47:40.525Z,19.8
2022-08-19T09:49:40.034Z,19.8
2022-08-19T09:51:40.040Z,19.8
2022-08-19T09:53:40.099Z,19.8
2022-08-19T09:55:40.058Z,19.8
2022-08-19T09:57:40.070Z,19.9
2022-08-19T09:59:40.087Z,19.9
2022-08-19T10:01:40.145Z,19.9
2022-08-19T10:03:40.105Z,20
2022-08-19T10:05:42.145Z,20.1
2022-08-19T10:07:40.134Z,20.2
2022-08-19T10:09:40.148Z,20.3
2022-08-19T10:11:43.674Z,20.4
2022-08-19T10:13:40.171Z,20.5
2022-08-19T10:15:44.926Z,20.6
2022-08-19T10:17:40.198Z,20.7
2022-08-19T10:19:40.209Z,20.8
2022-08-19T10:21:40.468Z,20.9
2022-08-19T10:23:40.243Z,21
2022-08-19T10:25:40.257Z,21
2022-08-19T10:27:40.268Z,21.1
2022-08-19T10:29:46.367Z,21.2
2022-08-19T10:31:58.932Z,21.3
2022-08-19T10:33:53.106Z,21.4
2022-08-19T10:35:42.889Z,21.5
2022-08-19T10:37:47.808Z,21.5
2022-08-19T10:39:41.075Z,21.5
2022-08-19T10:41:40.347Z,21.5
2022-08-19T10:43:40.349Z,21.6
2022-08-19T10:45:52.502Z,21.7
2022-08-19T10:47:40.367Z,21.7
2022-08-19T10:49:40.374Z,21.7
2022-08-19T10:51:42.314Z,21.8
2022-08-19T10:53:40.395Z,21.8
2022-08-19T10:55:40.401Z,21.8
2022-08-19T10:57:59.669Z,21.9
2022-08-19T10:59:40.414Z,22
2022-08-19T11:01:40.481Z,22.1
2022-08-19T11:03:40.438Z,22.3
2022-08-19T11:05:40.783Z,22.5
2022-08-19T11:07:40.451Z,22.7
2022-08-19T11:09:40.456Z,22.9
2022-08-19T11:11:40.462Z,23.2
2022-08-19T11:13:40.471Z,23.4
2022-08-19T11:15:40.482Z,23.5
2022-08-19T11:17:40.493Z,23.6
2022-08-19T11:19:40.503Z,23.7
2022-08-19T11:21:40.521Z,23.6
2022-08-19T11:23:40.517Z,23.8
2022-08-19T11:25:40.527Z,23.8
2022-08-19T11:27:40.535Z,23.6
2022-08-19T11:29:40.544Z,23.6
2022-08-19T11:31:40.543Z,23.5
2022-08-19T11:33:40.555Z,23.5
2022-08-19T11:35:40.559Z,23.6
2022-08-19T11:37:40.565Z,23.7
2022-08-19T11:39:40.621Z,23.9
2022-08-19T11:41:40.581Z,24.2
2022-08-19T11:43:40.586Z,24.4
2022-08-19T11:45:40.597Z,24.5
2022-08-19T11:47:40.606Z,24.5
2022-08-19T11:49:40.612Z,24.4
2022-08-19T11:51:40.625Z,24.3
2022-08-19T11:53:40.629Z,24.2
2022-08-19T11:55:43.352Z,24.2
2022-08-19T11:57:40.651Z,24.2
2022-08-19T11:59:40.659Z,24.4
2022-08-19T12:01:40.669Z,24.7
2022-08-19T12:03:40.788Z,24.8
2022-08-19T12:05:40.680Z,24.9
2022-08-19T12:07:40.781Z,24.9
2022-08-19T12:09:42.639Z,25.1
2022-08-19T12:11:40.713Z,25.5
2022-08-19T12:13:40.721Z,25.9
2022-08-19T12:15:40.733Z,26
2022-08-19T12:17:40.738Z,25.9
2022-08-19T12:19:40.742Z,25.7
2022-08-19T12:21:40.753Z,25.5
2022-08-19T12:23:40.763Z,25.4
2022-08-19T12:25:40.759Z,25.4
2022-08-19T12:27:41.831Z,25.3
2022-08-19T12:29:40.773Z,25.4
2022-08-19T12:31:40.780Z,25.6
2022-08-19T12:33:40.793Z,25.8
2022-08-19T12:35:44.011Z,25.8
2022-08-19T12:37:40.804Z,25.8
2022-08-19T12:39:40.876Z,25.9
2022-08-19T12:41:43.438Z,25.7
2022-08-19T12:43:40.843Z,25.5
2022-08-19T12:45:41.044Z,25.3
2022-08-19T12:47:40.863Z,25.1
2022-08-19T12:49:52.879Z,25.1
2022-08-19T12:51:40.874Z,25.1
2022-08-19T12:53:40.883Z,25.2
2022-08-19T12:55:40.904Z,25.2
2022-08-19T12:57:40.907Z,25.3
2022-08-19T12:59:40.915Z,25.4
2022-08-19T13:01:40.922Z,25.4
2022-08-19T13:03:40.935Z,25.4
2022-08-19T13:05:40.942Z,25.5
2022-08-19T13:07:40.955Z,25.5
2022-08-19T13:09:40.968Z,25.4
2022-08-19T13:11:40.971Z,25.3
2022-08-19T13:13:40.982Z,25.2
2022-08-19T13:15:40.999Z,25.2
2022-08-19T13:17:41.008Z,25.2
2022-08-19T13:19:41.004Z,25.2
2022-08-19T13:21:41.007Z,25.3
2022-08-19T13:23:41.013Z,25.3
2022-08-19T13:25:41.023Z,25.2
2022-08-19T13:27:41.033Z,25.2
2022-08-19T13:29:41.050Z,25.2
2022-08-19T13:31:41.262Z,25.2
2022-08-19T13:33:41.065Z,25.2
2022-08-19T13:35:41.076Z,25.3
2022-08-19T13:37:41.095Z,25.2
2022-08-19T13:39:41.170Z,25.2
2022-08-19T13:41:41.128Z,25.1
2022-08-19T13:43:41.147Z,24.9
2022-08-19T13:45:41.154Z,24.7
2022-08-19T13:47:41.152Z,24.6
2022-08-19T13:49:41.156Z,24.4
2022-08-19T13:51:41.171Z,24.3
2022-08-19T13:53:41.168Z,24.2
2022-08-19T13:55:41.168Z,24.1
2022-08-19T13:57:41.175Z,24.1
2022-08-19T13:59:41.175Z,24.1
2022-08-19T14:01:41.370Z,24.1
2022-08-19T14:03:41.185Z,24
2022-08-19T14:05:41.188Z,24
2022-08-19T14:07:41.192Z,24
2022-08-19T14:09:41.200Z,23.9
2022-08-19T14:11:41.203Z,23.9
2022-08-19T14:13:41.204Z,24.1
2022-08-19T14:15:41.208Z,24.1
2022-08-19T14:17:41.211Z,24.2
2022-08-19T14:19:41.214Z,24.3
2022-08-19T14:21:41.738Z,24.4
2022-08-19T14:23:41.227Z,24.6
2022-08-19T14:25:41.234Z,24.7
2022-08-19T14:27:41.231Z,24.9
2022-08-19T14:29:41.243Z,25
2022-08-19T14:31:41.250Z,25.2
2022-08-19T14:33:41.253Z,25.3
2022-08-19T14:35:41.249Z,25.4
2022-08-19T14:37:45.553Z,25.4
2022-08-19T14:39:41.310Z,25.4
2022-08-19T14:41:41.269Z,25.3
2022-08-19T14:43:41.268Z,25.3
2022-08-19T14:45:41.267Z,25.2
2022-08-19T14:47:41.273Z,25.1
2022-08-19T14:49:43.863Z,25.1
2022-08-19T14:51:41.290Z,25
2022-08-19T14:53:41.293Z,25
2022-08-19T14:55:41.295Z,24.9
2022-08-19T14:57:41.299Z,24.9
2022-08-19T14:59:41.306Z,24.9
2022-08-19T15:01:41.321Z,24.9
2022-08-19T15:03:41.326Z,24.9
2022-08-19T15:05:41.304Z,24.9
2022-08-19T15:07:41.316Z,24.8
2022-08-19T15:09:41.326Z,24.9
2022-08-19T15:11:41.328Z,25
2022-08-19T15:13:41.329Z,25
2022-08-19T15:15:41.329Z,25
2022-08-19T15:17:46.019Z,25
2022-08-19T15:19:41.349Z,25
2022-08-19T15:21:41.356Z,25.1
2022-08-19T15:23:41.355Z,25.2
2022-08-19T15:25:41.372Z,25.2
2022-08-19T15:27:41.408Z,25.3
2022-08-19T15:29:41.383Z,25.5
2022-08-19T15:31:41.387Z,25.6
2022-08-19T15:33:41.396Z,25.6
2022-08-19T15:35:41.389Z,25.5
2022-08-19T15:37:41.404Z,25.5
2022-08-19T15:39:41.425Z,25.5
2022-08-19T15:41:41.410Z,25.6
2022-08-19T15:43:41.418Z,25.8
2022-08-19T15:45:41.428Z,25.8
2022-08-19T15:47:41.425Z,25.9
2022-08-19T15:49:41.433Z,26
2022-08-19T15:51:41.431Z,26
2022-08-19T15:53:41.442Z,26
2022-08-19T15:55:41.441Z,26
2022-08-19T15:57:41.438Z,26
2022-08-19T15:59:47.005Z,26.1
2022-08-19T16:01:41.453Z,26.1
2022-08-19T16:03:41.485Z,26.1
2022-08-19T16:05:41.451Z,26.1
2022-08-19T16:07:41.457Z,26.2
2022-08-19T16:09:41.465Z,26.2
2022-08-19T16:11:45.420Z,26.1
2022-08-19T16:13:41.468Z,26.1
2022-08-19T16:15:41.478Z,26
2022-08-19T16:17:41.478Z,25.9
2022-08-19T16:19:41.476Z,25.8
2022-08-19T16:21:42.019Z,25.6
2022-08-19T16:23:41.496Z,25.4
2022-08-19T16:25:41.478Z,25.2
2022-08-19T16:27:41.484Z,25
2022-08-19T16:29:41.499Z,24.9
2022-08-19T16:31:41.490Z,24.8
2022-08-19T16:33:41.500Z,24.8
2022-08-19T16:35:41.498Z,24.7
2022-08-19T16:37:41.503Z,24.7
2022-08-19T16:39:41.523Z,24.6
2022-08-19T16:41:41.505Z,24.6
2022-08-19T16:43:41.510Z,24.5
2022-08-19T16:45:42.855Z,24.4
2022-08-19T16:47:41.517Z,24.4
2022-08-19T16:49:52.764Z,24.4
2022-08-19T16:51:41.520Z,24.4
2022-08-19T16:53:41.523Z,24.4
2022-08-19T16:55:41.531Z,24.3
2022-08-19T16:57:41.526Z,24.3
2022-08-19T16:59:42.652Z,24.3
2022-08-19T17:01:41.599Z,24.3
2022-08-19T17:03:41.548Z,24.3
2022-08-19T17:05:41.540Z,24.3
2022-08-19T17:07:41.544Z,24.3
2022-08-19T17:09:41.546Z,24.3
2022-08-19T17:11:41.548Z,24.3
2022-08-19T17:13:41.554Z,24.2
2022-08-19T17:15:41.565Z,24.2
2022-08-19T17:17:41.559Z,24.1
2022-08-19T17:19:41.564Z,24
2022-08-19T17:21:41.571Z,24
2022-08-19T17:23:43.421Z,23.9
2022-08-19T17:25:41.575Z,23.9
2022-08-19T17:27:41.582Z,23.8
2022-08-19T17:29:45.067Z,23.8
2022-08-19T17:31:41.587Z,23.7
2022-08-19T17:33:41.624Z,23.6
2022-08-19T17:35:41.601Z,23.6
2022-08-19T17:37:41.603Z,23.5
2022-08-19T17:39:41.633Z,23.4
2022-08-19T17:41:41.612Z,23.3
2022-08-19T17:43:43.719Z,23.2
2022-08-19T17:45:41.615Z,23.1
2022-08-19T17:47:41.625Z,23.1
2022-08-19T17:49:41.624Z,23
2022-08-19T17:51:42.058Z,22.9
2022-08-19T17:53:41.633Z,22.9
2022-08-19T17:55:41.642Z,22.8
2022-08-19T17:57:44.751Z,22.7
2022-08-19T17:59:41.648Z,22.7
2022-08-19T18:01:51.955Z,22.6
2022-08-19T18:03:41.668Z,22.5
2022-08-19T18:05:41.655Z,22.5
2022-08-19T18:07:41.665Z,22.4
2022-08-19T18:09:42.948Z,22.4
2022-08-19T18:11:41.675Z,22.3
2022-08-19T18:13:41.674Z,22.3
2022-08-19T18:15:41.682Z,22.2
2022-08-19T18:17:41.687Z,22.1
2022-08-19T18:19:42.929Z,22.1
2022-08-19T18:21:41.702Z,22
2022-08-19T18:23:44.976Z,21.9
2022-08-19T18:25:43.688Z,21.8
2022-08-19T18:27:41.713Z,21.8
2022-08-19T18:29:41.711Z,21.7
2022-08-19T18:31:41.718Z,21.6
2022-08-19T18:33:44.195Z,21.5
2022-08-19T18:35:41.729Z,21.4
2022-08-19T18:37:41.737Z,21.3
2022-08-19T18:39:44.343Z,21.3
2022-08-19T18:41:41.750Z,21.2
2022-08-19T18:43:41.754Z,21.1
2022-08-19T18:45:43.564Z,21
2022-08-19T18:47:41.765Z,20.9
2022-08-19T18:49:41.772Z,20.8
2022-08-19T18:51:41.779Z,20.8
2022-08-19T18:53:41.789Z,20.7
2022-08-19T18:55:41.786Z,20.6
2022-08-19T18:57:41.795Z,20.5
2022-08-19T18:59:41.804Z,20.5
2022-08-19T19:01:41.877Z,20.4
2022-08-19T19:03:41.812Z,20.3
2022-08-19T19:05:41.814Z,20.3
2022-08-19T19:07:41.821Z,20.2
2022-08-19T19:09:41.823Z,20.2
2022-08-19T19:11:41.831Z,20.1
2022-08-19T19:13:41.834Z,20.1
2022-08-19T19:15:41.841Z,20
2022-08-19T19:17:41.846Z,19.9
2022-08-19T19:19:41.855Z,19.9
2022-08-19T19:21:41.851Z,19.8
2022-08-19T19:23:41.864Z,19.7
2022-08-19T19:25:44.718Z,19.7
2022-08-19T19:27:41.878Z,19.6
2022-08-19T19:29:41.886Z,19.6
2022-08-19T19:31:41.891Z,19.5
2022-08-19T19:33:41.904Z,19.5
2022-08-19T19:35:44.617Z,19.4
2022-08-19T19:37:41.914Z,19.3
2022-08-19T19:39:45.131Z,19.3
2022-08-19T19:41:41.935Z,19.2
2022-08-19T19:43:41.941Z,19.2
2022-08-19T19:45:41.943Z,19.2
2022-08-19T19:47:41.966Z,19.1
2022-08-19T19:49:58.182Z,19.1
2022-08-19T19:51:41.971Z,19
2022-08-19T19:53:41.977Z,19
2022-08-19T19:55:41.986Z,19
2022-08-19T19:57:41.991Z,19
2022-08-19T19:59:44.758Z,19
2022-08-19T20:01:44.275Z,18.9
2022-08-19T20:03:42.015Z,18.9
2022-08-19T20:05:42.020Z,18.9
2022-08-19T20:07:42.025Z,18.9
2022-08-19T20:09:58.625Z,18.9
2022-08-19T20:11:42.034Z,18.9
2022-08-19T20:13:42.051Z,18.9
2022-08-19T20:15:42.780Z,18.9
2022-08-19T20:17:42.059Z,18.9
2022-08-19T20:19:42.067Z,18.9
2022-08-19T20:21:42.070Z,18.9
2022-08-19T20:23:42.085Z,18.9
2022-08-19T20:25:42.106Z,18.9
2022-08-19T20:27:42.101Z,18.9
2022-08-19T20:29:44.402Z,18.9
2022-08-19T20:31:54.334Z,18.8
2022-08-19T20:33:42.121Z,18.8
2022-08-19T20:35:42.129Z,18.8
2022-08-19T20:37:42.133Z,18.8
2022-08-19T20:39:42.183Z,18.8
2022-08-19T20:41:42.159Z,18.8
2022-08-19T20:43:42.155Z,18.8
2022-08-19T20:45:42.163Z,18.8
2022-08-19T20:47:42.170Z,18.8
2022-08-19T20:49:42.179Z,18.7
2022-08-19T20:51:42.187Z,18.7
2022-08-19T20:53:42.195Z,18.7
2022-08-19T20:55:42.202Z,18.7
2022-08-19T20:57:42.211Z,18.6
2022-08-19T20:59:42.226Z,18.6
2022-08-19T21:01:42.222Z,18.6
2022-08-19T21:03:42.462Z,18.5
2022-08-19T21:05:42.232Z,18.5
2022-08-19T21:07:42.237Z,18.5
2022-08-19T21:09:42.257Z,18.5
2022-08-19T21:11:42.259Z,18.5
2022-08-19T21:13:42.265Z,18.5
2022-08-19T21:15:42.263Z,18.5
2022-08-19T21:17:42.272Z,18.4
2022-08-19T21:19:42.338Z,18.4
2022-08-19T21:21:42.291Z,18.4
2022-08-19T21:23:42.599Z,18.4
2022-08-19T21:25:46.995Z,18.3
2022-08-19T21:27:42.315Z,18.3
2022-08-19T21:29:42.321Z,18.3
2022-08-19T21:31:42.329Z,18.2
2022-08-19T21:33:42.346Z,18.2
2022-08-19T21:35:42.349Z,18.2
2022-08-19T21:37:42.352Z,18.2
2022-08-19T21:39:42.415Z,18.2
2022-08-19T21:41:43.682Z,18.2
2022-08-19T21:43:42.370Z,18.1
2022-08-19T21:45:42.379Z,18.2
2022-08-19T21:47:42.388Z,18.2
2022-08-19T21:49:42.399Z,18.2
2022-08-19T21:51:42.408Z,18.2
2022-08-19T21:53:42.424Z,18.2
2022-08-19T21:55:42.415Z,18.1
2022-08-19T21:57:42.425Z,18.2
2022-08-19T21:59:43.561Z,18.1
2022-08-19T22:01:46.290Z,18.1
2022-08-19T22:03:42.446Z,18.1
2022-08-19T22:05:42.452Z,18.1
2022-08-19T22:07:42.455Z,18
2022-08-19T22:09:42.468Z,18
2022-08-19T22:11:42.475Z,18
2022-08-19T22:13:42.483Z,18
2022-08-19T22:15:42.564Z,18
2022-08-19T22:17:42.499Z,18
2022-08-19T22:19:42.512Z,18
2022-08-19T22:21:42.510Z,18.1
2022-08-19T22:23:42.525Z,18.1
2022-08-19T22:25:42.536Z,18.1
2022-08-19T22:27:42.537Z,18.1
2022-08-19T22:29:42.546Z,18.1
2022-08-19T22:31:42.554Z,18.1
2022-08-19T22:33:42.556Z,18.1
2022-08-19T22:35:42.571Z,18
2022-08-19T22:37:42.579Z,18
2022-08-19T22:39:42.629Z,18
2022-08-19T22:41:42.591Z,17.9
2022-08-19T22:43:42.598Z,17.9
2022-08-19T22:45:42.607Z,17.9
2022-08-19T22:47:42.614Z,17.9
2022-08-19T22:49:42.616Z,17.9
2022-08-19T22:51:42.617Z,17.9
2022-08-19T22:53:42.626Z,17.9
2022-08-19T22:55:42.633Z,17.9
2022-08-19T22:57:42.641Z,17.9
2022-08-19T22:59:42.652Z,17.9
2022-08-19T23:01:42.652Z,17.9
2022-08-19T23:03:42.659Z,17.9
2022-08-19T23:05:42.660Z,17.9
2022-08-19T23:07:42.675Z,17.9
2022-08-19T23:09:42.679Z,17.9
2022-08-19T23:11:42.690Z,17.9
2022-08-19T23:13:42.690Z,17.9
2022-08-19T23:15:42.696Z,17.9
2022-08-19T23:17:42.699Z,17.9
2022-08-19T23:19:42.707Z,17.9
2022-08-19T23:21:42.724Z,17.9
2022-08-19T23:23:42.720Z,17.9
2022-08-19T23:25:42.736Z,17.9
2022-08-19T23:27:42.738Z,17.9
2022-08-19T23:29:42.747Z,17.9
2022-08-19T23:31:42.754Z,18
2022-08-19T23:33:46.515Z,18
2022-08-19T23:35:42.770Z,18
2022-08-19T23:37:42.770Z,18
2022-08-19T23:39:43.435Z,18
2022-08-19T23:41:42.780Z,18
2022-08-19T23:43:42.784Z,18
2022-08-19T23:45:50.925Z,18
2022-08-19T23:47:42.801Z,18
2022-08-19T23:49:42.810Z,17.9
2022-08-19T23:51:42.812Z,17.9
2022-08-19T23:53:42.819Z,17.9
2022-08-19T23:55:42.828Z,17.9
2022-08-19T23:57:42.832Z,17.9
2022-08-19T23:59:42.842Z,17.8
